createdAt,value
2022-11-02T00:03:47.930Z,29.10
2022-11-02T00:08:53.833Z,27.40
2022-11-02T00:13:59.718Z,30.30
2022-11-02T00:19:06.656Z,27.60
2022-11-02T00:24:12.859Z,27.80
2022-11-02T00:29:18.902Z,27.20
2022-11-02T00:34:25.544Z,29.20
2022-11-02T00:39:31.557Z,38.80
2022-11-02T00:44:37.501Z,28.00
2022-11-02T00:49:43.636Z,27.10
2022-11-02T00:54:50.442Z,28.30
2022-11-02T00:59:57.233Z,38.50
2022-11-02T01:05:03.262Z,40.60
2022-11-02T01:10:10.595Z,39.00
2022-11-02T01:15:16.785Z,36.40
2022-11-02T01:20:23.298Z,36.40
2022-11-02T01:25:29.234Z,34.10
2022-11-02T01:30:38.162Z,31.20
2022-11-02T01:35:44.454Z,29.20
2022-11-02T01:40:50.322Z,31.60
2022-11-02T01:46:00.118Z,41.40
2022-11-02T01:51:09.664Z,44.50
2022-11-02T01:56:18.234Z,42.20
2022-11-02T02:01:26.326Z,35.20
2022-11-02T02:06:32.688Z,32.90
2022-11-02T02:11:40.718Z,29.30
2022-11-02T02:16:57.296Z,29.70
2022-11-02T02:22:26.947Z,27.10
2022-11-02T02:27:46.484Z,27.70
2022-11-02T02:32:57.537Z,29.50
2022-11-02T02:38:07.756Z,30.40
2022-11-02T02:43:21.073Z,29.20
2022-11-02T02:48:27.387Z,29.20
2022-11-02T02:53:38.722Z,29.60
2022-11-02T02:58:52.994Z,30.70
2022-11-02T03:03:59.635Z,36.70
2022-11-02T03:09:16.778Z,36.90
2022-11-02T03:14:38.457Z,36.60
2022-11-02T03:19:53.246Z,38.90
2022-11-02T03:25:10.368Z,37.80
2022-11-02T03:30:19.981Z,40.60
2022-11-02T03:35:36.015Z,40.50
2022-11-02T03:40:47.062Z,40.70
2022-11-02T03:45:55.972Z,39.20
2022-11-02T03:51:08.829Z,39.50
2022-11-02T03:56:21.444Z,40.60
2022-11-02T04:01:29.639Z,40.10
2022-11-02T04:06:36.996Z,40.40
2022-11-02T04:12:01.923Z,40.60
2022-11-02T04:17:28.775Z,40.00
2022-11-02T04:22:54.001Z,38.60
2022-11-02T04:28:08.999Z,43.30
2022-11-02T04:33:35.265Z,41.90
2022-11-02T04:38:53.725Z,43.40
2022-11-02T04:44:04.253Z,44.60
2022-11-02T04:49:11.247Z,46.40
2022-11-02T04:54:17.258Z,45.70
2022-11-02T04:59:23.666Z,48.40
2022-11-02T05:04:29.813Z,46.60
2022-11-02T05:09:36.105Z,47.10
2022-11-02T05:14:42.693Z,45.80
2022-11-02T05:19:48.940Z,45.90
2022-11-02T05:24:54.863Z,46.40
2022-11-02T05:30:02.037Z,48.30
2022-11-02T05:35:09.725Z,52.00
2022-11-02T05:40:17.666Z,51.60
2022-11-02T05:45:24.903Z,50.40
2022-11-02T05:50:31.014Z,50.10
2022-11-02T05:55:38.683Z,50.50
2022-11-02T06:00:44.617Z,50.00
2022-11-02T06:05:57.904Z,53.40
2022-11-02T06:11:06.859Z,49.60
2022-11-02T06:16:18.703Z,49.20
2022-11-02T06:21:28.458Z,46.40
2022-11-02T06:26:34.248Z,47.40
2022-11-02T06:31:40.315Z,46.60
2022-11-02T06:36:46.286Z,48.00
2022-11-02T06:41:52.814Z,45.30
2022-11-02T06:46:59.236Z,42.90
2022-11-02T06:52:05.435Z,41.60
2022-11-02T06:57:11.303Z,39.70
2022-11-02T07:02:17.329Z,37.70
2022-11-02T07:07:23.486Z,35.90
2022-11-02T07:12:31.557Z,33.60
2022-11-02T07:17:41.169Z,30.90
2022-11-02T07:22:55.863Z,32.20
2022-11-02T07:28:02.912Z,31.40
2022-11-02T07:33:09.038Z,32.30
2022-11-02T07:38:15.329Z,28.00
2022-11-02T07:43:21.626Z,28.10
2022-11-02T07:48:36.152Z,25.70
2022-11-02T07:53:42.610Z,25.50
2022-11-02T07:58:49.101Z,23.70
2022-11-02T08:03:56.511Z,24.40
2022-11-02T08:09:03.322Z,23.30
2022-11-02T08:14:29.141Z,20.80
2022-11-02T08:19:35.239Z,21.80
2022-11-02T08:24:41.293Z,20.40
2022-11-02T08:29:47.106Z,18.80
2022-11-02T08:34:53.120Z,17.40
2022-11-02T08:39:59.000Z,18.60
2022-11-02T08:45:06.168Z,18.70
2022-11-02T08:50:13.672Z,20.30
2022-11-02T08:55:21.136Z,20.50
2022-11-02T09:00:30.089Z,20.10
2022-11-02T09:05:37.932Z,17.90
2022-11-02T09:10:46.021Z,17.50
2022-11-02T09:15:53.833Z,18.70
2022-11-02T09:21:03.820Z,18.60
2022-11-02T09:26:09.649Z,18.30
2022-11-02T09:31:15.585Z,18.70
2022-11-02T09:36:21.819Z,18.60
2022-11-02T09:41:36.668Z,19.40
2022-11-02T09:46:46.040Z,18.20
2022-11-02T09:51:55.312Z,17.90
2022-11-02T09:57:05.385Z,19.60
2022-11-02T10:02:25.312Z,20.40
2022-11-02T10:07:57.315Z,19.00
2022-11-02T10:13:14.736Z,19.20
2022-11-02T10:18:24.663Z,18.70
2022-11-02T10:23:33.681Z,21.70
2022-11-02T10:28:43.933Z,19.40
2022-11-02T10:33:52.867Z,18.70
2022-11-02T10:39:12.554Z,20.70
2022-11-02T10:44:32.947Z,27.90
2022-11-02T10:49:58.518Z,19.20
2022-11-02T10:55:05.117Z,19.20
2022-11-02T11:00:26.992Z,20.60
2022-11-02T11:05:33.941Z,19.20
2022-11-02T11:10:40.680Z,17.80
2022-11-02T11:15:52.642Z,16.80
2022-11-02T11:20:59.693Z,18.10
2022-11-02T11:26:12.157Z,18.50
2022-11-02T11:31:19.753Z,18.30
2022-11-02T11:36:30.389Z,17.00
2022-11-02T11:41:43.758Z,18.00
2022-11-02T11:46:54.209Z,17.10
2022-11-02T11:52:02.734Z,13.90
2022-11-02T11:57:28.297Z,13.50
2022-11-02T12:02:40.951Z,13.60
2022-11-02T12:08:20.452Z,13.50
2022-11-02T12:13:45.646Z,14.10
2022-11-02T12:19:04.507Z,14.90
2022-11-02T12:24:33.616Z,16.60
2022-11-02T12:30:01.402Z,14.20
2022-11-02T12:35:32.234Z,12.80
2022-11-02T12:40:54.751Z,12.20
2022-11-02T12:46:07.722Z,16.40
2022-11-02T12:51:16.735Z,13.00
2022-11-02T12:56:26.449Z,11.40
2022-11-02T13:01:35.984Z,10.70
2022-11-02T13:06:44.529Z,11.20
2022-11-02T13:12:06.194Z,11.90
2022-11-02T13:17:17.967Z,11.80
2022-11-02T13:22:32.116Z,13.10
2022-11-02T13:27:46.107Z,12.30
2022-11-02T13:32:58.753Z,12.50
2022-11-02T13:38:13.567Z,13.30
2022-11-02T13:43:47.947Z,19.40
2022-11-02T13:48:59.152Z,19.70
2022-11-02T13:59:23.619Z,13.60
2022-11-02T14:04:37.904Z,15.40
2022-11-02T14:09:45.724Z,12.90
2022-11-02T14:15:46.615Z,13.30
2022-11-02T14:20:52.893Z,13.60
2022-11-02T14:25:59.610Z,13.40
2022-11-02T14:31:31.638Z,14.80
2022-11-02T14:36:55.449Z,14.20
2022-11-02T14:42:19.672Z,14.90
2022-11-02T14:47:29.906Z,14.70
2022-11-02T14:52:37.807Z,15.10
2022-11-02T14:57:52.595Z,15.70
2022-11-02T15:03:00.702Z,14.90
2022-11-02T15:08:09.305Z,15.70
2022-11-02T15:13:39.988Z,16.20
2022-11-02T15:18:46.066Z,16.20
2022-11-02T15:24:16.982Z,17.50
2022-11-02T15:29:37.059Z,16.50
2022-11-02T15:34:48.050Z,15.90
2022-11-02T15:39:57.097Z,18.60
2022-11-02T15:45:51.856Z,19.10
2022-11-02T15:51:14.470Z,18.20
2022-11-02T15:56:39.895Z,17.00
2022-11-02T16:01:46.120Z,22.40
2022-11-02T16:06:53.205Z,27.60
2022-11-02T16:12:13.192Z,22.50
2022-11-02T16:17:24.820Z,21.50
2022-11-02T16:22:31.001Z,19.30
2022-11-02T16:27:40.705Z,20.60
2022-11-02T16:32:49.786Z,29.10
2022-11-02T16:37:56.192Z,25.20
2022-11-02T16:43:02.189Z,26.50
2022-11-02T16:48:21.738Z,24.30
2022-11-02T16:53:32.014Z,24.40
2022-11-02T16:58:38.142Z,26.50
2022-11-02T17:03:44.170Z,27.50
2022-11-02T17:08:55.502Z,29.10
2022-11-02T17:19:46.905Z,16.60
2022-11-02T17:25:04.783Z,12.70
2022-11-02T17:30:40.615Z,12.50
2022-11-02T17:35:50.582Z,11.20
2022-11-02T17:40:59.224Z,11.30
2022-11-02T17:46:05.213Z,9.40
2022-11-02T17:51:15.483Z,8.60
2022-11-02T17:56:22.429Z,9.00
2022-11-02T18:01:28.807Z,8.50
2022-11-02T18:06:35.268Z,9.00
2022-11-02T18:11:41.576Z,8.70
2022-11-02T18:16:48.268Z,7.20
2022-11-02T18:21:54.185Z,8.00
2022-11-02T18:27:00.341Z,7.60
2022-11-02T18:32:06.628Z,7.10
2022-11-02T18:37:12.586Z,6.60
2022-11-02T18:42:18.748Z,7.20
2022-11-02T18:47:25.403Z,7.30
2022-11-02T18:52:32.488Z,7.50
2022-11-02T18:57:38.591Z,7.30
2022-11-02T19:02:44.772Z,8.00
2022-11-02T19:08:09.658Z,8.20
2022-11-02T19:13:16.120Z,8.30
2022-11-02T19:18:22.431Z,8.80
2022-11-02T19:23:28.475Z,9.90
2022-11-02T19:28:34.496Z,8.70
2022-11-02T19:33:40.821Z,8.40
2022-11-02T19:38:46.744Z,8.60
2022-11-02T19:43:53.402Z,9.30
2022-11-02T19:48:59.742Z,10.80
2022-11-02T19:54:06.391Z,11.50
2022-11-02T19:59:12.944Z,11.40
2022-11-02T20:04:19.335Z,12.60
2022-11-02T20:09:25.246Z,13.30
2022-11-02T20:14:31.428Z,12.40
2022-11-02T20:19:37.867Z,11.80
2022-11-02T20:24:44.133Z,11.60
2022-11-02T20:29:50.376Z,10.80
2022-11-02T20:34:56.246Z,10.20
2022-11-02T20:40:02.384Z,10.10
2022-11-02T20:45:10.435Z,8.90
2022-11-02T20:50:19.409Z,8.40
2022-11-02T20:55:29.975Z,7.00
2022-11-02T21:00:36.261Z,6.90
2022-11-02T21:05:42.797Z,7.60
2022-11-02T21:10:57.949Z,6.70
2022-11-02T21:16:05.953Z,6.20
2022-11-02T21:21:13.932Z,6.50
2022-11-02T21:26:19.802Z,6.80
2022-11-02T21:31:26.033Z,7.50
2022-11-02T21:36:32.075Z,7.40
2022-11-02T21:41:39.096Z,7.80
2022-11-02T21:46:45.091Z,7.60
2022-11-02T21:51:50.963Z,7.10
2022-11-02T21:56:58.251Z,7.50
2022-11-02T22:02:04.309Z,6.90
2022-11-02T22:07:10.666Z,7.30
2022-11-02T22:12:35.492Z,8.50
2022-11-02T22:17:49.549Z,9.20
2022-11-02T22:22:56.107Z,9.30
2022-11-02T22:28:02.094Z,9.10
2022-11-02T22:33:11.425Z,9.40
2022-11-02T22:38:36.017Z,11.40
2022-11-02T22:43:42.475Z,10.40
2022-11-02T22:48:50.222Z,10.80
2022-11-02T22:53:59.571Z,10.30
2022-11-02T22:59:06.137Z,9.80
2022-11-02T23:04:13.350Z,10.00
2022-11-02T23:09:19.463Z,10.10
2022-11-02T23:14:25.313Z,9.90
2022-11-02T23:19:31.803Z,9.40
2022-11-02T23:24:57.192Z,9.20
2022-11-02T23:30:22.422Z,8.90
2022-11-02T23:35:47.262Z,8.00
2022-11-02T23:40:56.209Z,8.00
2022-11-02T23:46:02.460Z,8.00
2022-11-02T23:51:27.874Z,8.90
2022-11-02T23:56:44.237Z,8.00
